createdAt,value
2018-02-07T00:02:27.190Z,8.43
2018-02-07T00:04:54.855Z,11.03
2018-02-07T00:07:22.531Z,9.83
2018-02-07T00:09:50.085Z,13.80
2018-02-07T00:12:17.665Z,13.10
2018-02-07T00:14:45.233Z,6.47
2018-02-07T00:17:12.825Z,11.20
2018-02-07T00:19:40.396Z,12.77
2018-02-07T00:22:07.953Z,8.87
2018-02-07T00:24:35.578Z,12.20
2018-02-07T00:27:03.126Z,9.80
2018-02-07T00:29:30.676Z,13.00
2018-02-07T00:31:58.358Z,8.50
2018-02-07T00:34:25.934Z,14.10
2018-02-07T00:36:53.476Z,9.00
2018-02-07T00:39:21.030Z,10.03
2018-02-07T00:41:48.603Z,13.97
2018-02-07T00:44:16.576Z,13.67
2018-02-07T00:46:44.114Z,13.63
2018-02-07T00:49:11.682Z,12.57
2018-02-07T00:51:39.243Z,13.93
2018-02-07T00:54:06.755Z,12.57
2018-02-07T00:56:34.722Z,14.33
2018-02-07T00:59:02.298Z,16.10
2018-02-07T01:01:29.863Z,16.10
2018-02-07T01:03:57.635Z,14.63
2018-02-07T01:06:25.529Z,9.73
2018-02-07T01:08:53.072Z,15.93
2018-02-07T01:11:20.678Z,12.03
2018-02-07T01:13:48.336Z,11.50
2018-02-07T01:16:15.880Z,16.40
2018-02-07T01:18:43.442Z,7.33
2018-02-07T01:21:10.976Z,10.93
2018-02-07T01:23:38.570Z,15.93
2018-02-07T01:26:06.115Z,12.73
2018-02-07T01:28:33.691Z,11.30
2018-02-07T01:31:01.275Z,14.67
2018-02-07T01:33:28.860Z,18.10
2018-02-07T01:35:56.402Z,13.70
2018-02-07T01:38:23.955Z,18.20
2018-02-07T01:40:51.535Z,13.00
2018-02-07T01:43:19.104Z,15.67
2018-02-07T01:45:46.618Z,8.83
2018-02-07T01:48:14.577Z,13.43
2018-02-07T01:50:42.134Z,14.07
2018-02-07T01:53:09.677Z,15.90
2018-02-07T01:55:37.252Z,13.97
2018-02-07T01:58:04.776Z,9.40
2018-02-07T02:00:32.356Z,8.97
2018-02-07T02:02:59.904Z,16.33
2018-02-07T02:05:27.807Z,13.87
2018-02-07T02:07:55.375Z,15.17
2018-02-07T02:10:22.932Z,12.70
2018-02-07T02:12:54.338Z,11.70
2018-02-07T02:15:21.873Z,18.17
2018-02-07T02:17:49.419Z,14.80
2018-02-07T02:20:17.005Z,21.17
2018-02-07T02:22:44.557Z,14.27
2018-02-07T02:25:12.079Z,21.50
2018-02-07T02:27:39.682Z,17.47
2018-02-07T02:30:07.323Z,17.17
2018-02-07T02:32:34.875Z,15.80
2018-02-07T02:35:02.433Z,15.83
2018-02-07T02:37:29.987Z,19.10
2018-02-07T02:39:57.558Z,16.57
2018-02-07T02:42:25.090Z,19.63
2018-02-07T02:44:52.645Z,14.47
2018-02-07T02:47:20.207Z,19.73
2018-02-07T02:49:47.780Z,16.13
2018-02-07T02:52:15.350Z,20.50
2018-02-07T02:54:42.932Z,18.60
2018-02-07T02:57:10.504Z,20.67
2018-02-07T02:59:38.042Z,12.07
2018-02-07T03:02:05.646Z,13.80
2018-02-07T03:04:33.216Z,14.50
2018-02-07T03:07:00.770Z,21.30
2018-02-07T03:09:28.331Z,18.77
2018-02-07T03:11:55.911Z,21.67
2018-02-07T03:14:23.515Z,18.30
2018-02-07T03:16:51.081Z,18.60
2018-02-07T03:19:18.652Z,18.50
2018-02-07T03:21:46.219Z,19.83
2018-02-07T03:24:13.738Z,18.60
2018-02-07T03:26:41.319Z,22.07
2018-02-07T03:29:08.946Z,15.77
2018-02-07T03:31:36.473Z,16.20
2018-02-07T03:34:04.080Z,21.00
2018-02-07T03:36:31.626Z,18.83
2018-02-07T03:38:59.143Z,22.03
2018-02-07T03:41:26.692Z,20.70
2018-02-07T03:43:54.264Z,22.00
2018-02-07T03:46:21.854Z,18.50
2018-02-07T03:48:49.478Z,22.40
2018-02-07T03:51:17.029Z,21.23
2018-02-07T03:53:44.576Z,22.97
2018-02-07T03:56:12.255Z,19.87
2018-02-07T03:58:39.858Z,18.83
2018-02-07T04:01:07.466Z,22.47
2018-02-07T04:03:35.010Z,16.30
2018-02-07T04:06:02.648Z,16.57
2018-02-07T04:08:30.274Z,15.03
2018-02-07T04:10:57.823Z,14.27
2018-02-07T04:13:25.344Z,14.50
2018-02-07T04:15:52.891Z,23.43
2018-02-07T04:18:20.660Z,21.50
2018-02-07T04:20:48.608Z,15.00
2018-02-07T04:23:16.210Z,19.50
2018-02-07T04:25:43.737Z,17.70
2018-02-07T04:28:11.724Z,23.70
2018-02-07T04:30:39.275Z,16.30
2018-02-07T04:33:06.799Z,15.93
2018-02-07T04:35:34.402Z,15.80
2018-02-07T04:38:01.951Z,20.63
2018-02-07T04:40:29.499Z,14.07
2018-02-07T04:42:57.058Z,22.00
2018-02-07T04:45:24.603Z,20.07
2018-02-07T04:47:52.211Z,12.23
2018-02-07T04:50:19.780Z,17.37
2018-02-07T04:52:47.316Z,21.70
2018-02-07T04:55:14.925Z,18.97
2018-02-07T04:57:42.494Z,22.83
2018-02-07T05:00:10.119Z,21.27
2018-02-07T05:02:37.670Z,21.23
2018-02-07T05:05:05.227Z,15.33
2018-02-07T05:07:32.835Z,14.60
2018-02-07T05:10:00.403Z,15.33
2018-02-07T05:12:27.964Z,16.67
2018-02-07T05:14:55.617Z,20.60
2018-02-07T05:17:23.165Z,14.70
2018-02-07T05:19:51.073Z,20.10
2018-02-07T05:22:18.640Z,18.97
2018-02-07T05:24:46.212Z,12.67
2018-02-07T05:27:13.792Z,9.60
2018-02-07T05:29:41.343Z,11.77
2018-02-07T05:32:08.881Z,15.17
2018-02-07T05:34:36.435Z,15.67
2018-02-07T05:37:03.974Z,14.87
2018-02-07T05:39:31.641Z,7.47
2018-02-07T05:41:59.209Z,20.67
2018-02-07T05:44:26.750Z,19.57
2018-02-07T05:46:55.012Z,17.50
2018-02-07T05:49:22.607Z,17.53
2018-02-07T05:51:50.174Z,18.67
2018-02-07T05:54:19.212Z,14.63
2018-02-07T05:56:46.803Z,18.30
2018-02-07T05:59:14.349Z,19.93
2018-02-07T06:01:41.904Z,23.20
2018-02-07T06:04:09.530Z,20.93
2018-02-07T06:06:37.060Z,15.63
2018-02-07T06:09:04.633Z,18.33
2018-02-07T06:11:32.352Z,20.87
2018-02-07T06:13:59.898Z,16.33
2018-02-07T06:16:27.474Z,7.10
2018-02-07T06:18:55.128Z,18.97
2018-02-07T06:21:22.692Z,22.67
2018-02-07T06:23:50.243Z,20.70
2018-02-07T06:26:17.788Z,18.37
2018-02-07T06:28:45.804Z,11.00
2018-02-07T06:31:13.321Z,31.00
2018-02-07T06:33:40.840Z,12.70
2018-02-07T06:36:08.564Z,13.73
2018-02-07T06:38:36.103Z,17.30
2018-02-07T06:41:03.639Z,13.87
2018-02-07T06:43:31.183Z,12.50
2018-02-07T06:45:58.731Z,17.23
2018-02-07T06:48:26.286Z,14.10
2018-02-07T06:50:53.808Z,14.90
2018-02-07T06:53:21.402Z,13.20
2018-02-07T06:55:48.922Z,10.70
2018-02-07T06:58:16.532Z,18.77
2018-02-07T07:00:44.983Z,9.73
2018-02-07T07:03:12.525Z,11.53
2018-02-07T07:05:40.080Z,12.73
2018-02-07T07:08:07.600Z,10.70
2018-02-07T07:10:35.210Z,12.10
2018-02-07T07:13:02.783Z,18.67
2018-02-07T07:15:30.395Z,10.80
2018-02-07T07:17:57.953Z,14.40
2018-02-07T07:20:25.855Z,10.50
2018-02-07T07:22:53.391Z,11.10
2018-02-07T07:25:20.938Z,15.97
2018-02-07T07:27:48.517Z,11.83
2018-02-07T07:30:16.082Z,12.40
2018-02-07T07:32:44.039Z,13.90
2018-02-07T07:35:11.555Z,17.73
2018-02-07T07:37:39.137Z,12.60
2018-02-07T07:40:06.731Z,12.00
2018-02-07T07:42:34.249Z,10.13
2018-02-07T07:45:01.791Z,9.33
2018-02-07T07:47:29.690Z,15.30
2018-02-07T07:49:57.258Z,10.90
2018-02-07T07:52:24.770Z,13.87
2018-02-07T07:54:52.363Z,11.80
2018-02-07T07:57:19.887Z,10.00
2018-02-07T07:59:47.399Z,10.13
2018-02-07T08:02:14.995Z,10.70
2018-02-07T08:04:42.565Z,9.53
2018-02-07T08:07:10.092Z,14.50
2018-02-07T08:09:37.693Z,14.90
2018-02-07T08:12:05.221Z,19.47
2018-02-07T08:14:32.770Z,17.13
2018-02-07T08:17:00.348Z,16.17
2018-02-07T08:19:27.896Z,15.50
2018-02-07T08:21:55.454Z,10.87
2018-02-07T08:24:23.025Z,13.60
2018-02-07T08:26:50.552Z,12.57
2018-02-07T08:29:18.143Z,18.63
2018-02-07T08:31:45.682Z,15.87
2018-02-07T08:34:13.228Z,8.80
2018-02-07T08:36:40.874Z,14.77
2018-02-07T08:39:08.434Z,15.03
2018-02-07T08:41:35.952Z,11.67
2018-02-07T08:44:03.536Z,11.10
2018-02-07T08:46:31.187Z,9.43
2018-02-07T08:48:58.765Z,13.90
2018-02-07T08:51:26.400Z,9.53
2018-02-07T08:53:53.941Z,7.87
2018-02-07T08:56:21.514Z,8.63
2018-02-07T08:58:49.036Z,18.70
2018-02-07T09:01:16.936Z,17.00
2018-02-07T09:03:44.473Z,15.30
2018-02-07T09:06:12.018Z,14.30
2018-02-07T09:08:39.608Z,14.17
2018-02-07T09:11:07.131Z,14.37
2018-02-07T09:13:34.684Z,13.20
2018-02-07T09:16:02.679Z,15.57
2018-02-07T09:18:30.351Z,9.47
2018-02-07T09:20:57.875Z,13.60
2018-02-07T09:23:25.432Z,11.27
2018-02-07T09:25:52.951Z,10.80
2018-02-07T09:28:20.499Z,18.00
2018-02-07T09:30:48.054Z,7.07
2018-02-07T09:33:15.596Z,11.23
2018-02-07T09:35:43.255Z,10.40
2018-02-07T09:38:10.791Z,11.90
2018-02-07T09:40:38.407Z,15.43
2018-02-07T09:43:05.932Z,9.90
2018-02-07T09:45:33.549Z,8.83
2018-02-07T09:48:01.543Z,10.07
2018-02-07T09:50:29.102Z,12.70
2018-02-07T09:52:56.636Z,13.40
2018-02-07T09:55:24.228Z,13.30
2018-02-07T09:57:51.776Z,7.97
2018-02-07T10:00:19.331Z,9.20
2018-02-07T10:02:47.312Z,12.50
2018-02-07T10:05:14.831Z,12.10
2018-02-07T10:07:42.359Z,6.70
2018-02-07T10:10:09.931Z,10.90
2018-02-07T10:12:37.471Z,12.73
2018-02-07T10:15:05.059Z,8.00
2018-02-07T10:17:32.716Z,9.47
2018-02-07T10:20:00.266Z,10.27
2018-02-07T10:22:27.855Z,9.27
2018-02-07T10:24:55.392Z,10.40
2018-02-07T10:27:23.010Z,10.23
2018-02-07T10:29:50.547Z,9.90
2018-02-07T10:32:18.086Z,11.27
2018-02-07T10:34:45.655Z,9.60
2018-02-07T10:37:13.292Z,12.20
2018-02-07T10:39:40.869Z,9.60
2018-02-07T10:42:08.387Z,13.47
2018-02-07T10:44:35.930Z,14.13
2018-02-07T10:47:03.870Z,10.17
2018-02-07T10:49:31.409Z,7.77
2018-02-07T10:51:58.979Z,12.83
2018-02-07T10:54:26.545Z,8.00
2018-02-07T10:56:54.121Z,11.23
2018-02-07T10:59:21.710Z,12.53
2018-02-07T11:01:49.251Z,11.90
2018-02-07T11:04:16.787Z,10.83
2018-02-07T11:06:44.332Z,14.80
2018-02-07T11:09:11.848Z,12.70
2018-02-07T11:11:39.423Z,11.57
2018-02-07T11:14:06.993Z,10.23
2018-02-07T11:16:34.574Z,12.50
2018-02-07T11:19:02.759Z,13.57
2018-02-07T11:21:30.389Z,13.47
2018-02-07T11:23:57.979Z,8.17
2018-02-07T11:26:25.518Z,9.40
2018-02-07T11:28:53.091Z,14.43
2018-02-07T11:31:20.618Z,14.07
2018-02-07T11:33:48.211Z,10.07
2018-02-07T11:36:15.767Z,9.83
2018-02-07T11:38:43.270Z,9.33
2018-02-07T11:41:10.846Z,11.77
2018-02-07T11:43:38.486Z,10.47
2018-02-07T11:46:06.023Z,7.93
2018-02-07T11:48:33.585Z,8.40
2018-02-07T11:51:01.115Z,11.87
2018-02-07T11:53:28.671Z,11.93
2018-02-07T11:55:56.209Z,11.33
2018-02-07T11:58:23.750Z,9.90
2018-02-07T12:00:51.342Z,11.90
2018-02-07T12:03:18.869Z,8.50
2018-02-07T12:05:46.411Z,11.20
2018-02-07T12:08:13.978Z,8.30
2018-02-07T12:10:41.531Z,9.57
2018-02-07T12:13:09.077Z,7.60
2018-02-07T12:15:36.648Z,10.53
2018-02-07T12:18:04.191Z,10.07
2018-02-07T12:20:31.736Z,8.87
2018-02-07T12:22:59.289Z,6.97
2018-02-07T12:25:26.823Z,7.60
2018-02-07T12:27:54.444Z,6.40
2018-02-07T12:30:21.977Z,5.43
2018-02-07T12:32:49.532Z,6.20
2018-02-07T12:35:17.087Z,9.07
2018-02-07T12:37:44.640Z,7.67
2018-02-07T12:40:12.255Z,5.50
2018-02-07T12:42:39.791Z,8.20
2018-02-07T12:45:07.342Z,10.40
2018-02-07T12:47:35.320Z,9.20
2018-02-07T12:50:02.866Z,6.70
2018-02-07T12:52:30.429Z,6.70
2018-02-07T12:54:58.025Z,5.13
2018-02-07T12:57:25.579Z,5.20
2018-02-07T12:59:53.150Z,6.47
2018-02-07T13:02:20.700Z,6.47
2018-02-07T13:04:48.236Z,6.10
2018-02-07T13:07:15.748Z,7.80
2018-02-07T13:09:43.343Z,5.60
2018-02-07T13:12:10.883Z,7.67
2018-02-07T13:14:38.400Z,6.70
2018-02-07T13:17:05.940Z,4.17
2018-02-07T13:19:33.459Z,4.47
2018-02-07T13:22:01.030Z,6.93
2018-02-07T13:24:28.567Z,5.90
2018-02-07T13:26:56.174Z,8.27
2018-02-07T13:29:23.725Z,8.80
2018-02-07T13:31:51.284Z,6.90
2018-02-07T13:34:18.842Z,7.70
2018-02-07T13:36:46.411Z,6.93
2018-02-07T13:39:13.978Z,6.70
2018-02-07T13:41:41.566Z,6.90
2018-02-07T13:44:09.119Z,4.20
2018-02-07T13:46:36.634Z,7.27
2018-02-07T13:49:04.193Z,7.33
2018-02-07T13:51:31.718Z,3.63
2018-02-07T13:53:59.279Z,6.03
2018-02-07T13:56:26.792Z,4.63
2018-02-07T13:58:54.370Z,6.30
2018-02-07T14:01:21.886Z,3.53
2018-02-07T14:03:49.451Z,4.13
2018-02-07T14:06:17.042Z,6.20
2018-02-07T14:08:44.591Z,8.27
2018-02-07T14:11:12.104Z,8.80
2018-02-07T14:13:39.676Z,4.70
2018-02-07T14:16:07.211Z,8.10
2018-02-07T14:18:34.746Z,5.47
2018-02-07T14:21:02.671Z,10.70
2018-02-07T14:23:30.192Z,8.20
2018-02-07T14:25:57.735Z,7.13
2018-02-07T14:28:25.292Z,7.13
2018-02-07T14:30:52.921Z,4.87
2018-02-07T14:33:20.435Z,9.07
2018-02-07T14:35:47.967Z,4.70
2018-02-07T14:38:15.524Z,8.60
2018-02-07T14:40:43.099Z,8.60
2018-02-07T14:43:10.659Z,7.97
2018-02-07T14:45:38.199Z,8.07
2018-02-07T14:48:05.786Z,6.80
2018-02-07T14:50:33.327Z,7.67
2018-02-07T14:53:00.880Z,3.13
2018-02-07T14:55:28.423Z,8.07
2018-02-07T14:57:55.947Z,7.60
2018-02-07T15:00:23.515Z,7.40
2018-02-07T15:02:51.063Z,8.87
2018-02-07T15:05:18.640Z,8.10
2018-02-07T15:07:46.199Z,5.23
2018-02-07T15:10:13.744Z,7.07
2018-02-07T15:12:41.305Z,7.23
2018-02-07T15:15:08.850Z,8.67
2018-02-07T15:17:36.411Z,7.73
2018-02-07T15:20:03.939Z,4.57
2018-02-07T15:22:31.945Z,4.97
2018-02-07T15:24:59.471Z,8.40
2018-02-07T15:27:27.024Z,7.03
2018-02-07T15:29:54.618Z,8.77
2018-02-07T15:32:22.260Z,8.50
2018-02-07T15:34:49.778Z,7.20
2018-02-07T15:37:17.744Z,8.57
2018-02-07T15:39:45.303Z,8.10
2018-02-07T15:42:12.854Z,8.53
2018-02-07T15:44:40.399Z,8.00
2018-02-07T15:47:07.931Z,7.73
2018-02-07T15:49:35.532Z,8.97
2018-02-07T15:52:03.048Z,8.70
2018-02-07T15:54:30.594Z,8.80
2018-02-07T15:56:58.524Z,9.77
2018-02-07T15:59:26.047Z,8.10
2018-02-07T16:01:53.565Z,6.83
2018-02-07T16:04:21.175Z,8.20
2018-02-07T16:06:48.693Z,9.07
2018-02-07T16:09:16.241Z,8.43
2018-02-07T16:11:43.887Z,13.57
2018-02-07T16:14:11.452Z,11.80
2018-02-07T16:16:39.023Z,9.70
2018-02-07T16:19:06.610Z,11.37
2018-02-07T16:21:34.188Z,9.50
2018-02-07T16:24:01.720Z,13.10
2018-02-07T16:26:29.259Z,10.97
2018-02-07T16:28:56.832Z,12.73
2018-02-07T16:31:24.434Z,14.20
2018-02-07T16:33:51.984Z,11.10
2018-02-07T16:36:19.562Z,11.90
2018-02-07T16:38:47.157Z,12.03
2018-02-07T16:41:14.702Z,10.90
2018-02-07T16:43:42.257Z,13.53
2018-02-07T16:46:10.177Z,11.60
2018-02-07T16:48:37.723Z,12.57
2018-02-07T16:51:05.247Z,17.20
2018-02-07T16:53:32.812Z,16.87
2018-02-07T16:56:00.422Z,10.87
2018-02-07T16:58:28.449Z,10.53
2018-02-07T17:00:55.981Z,11.57
2018-02-07T17:03:23.586Z,11.47
2018-02-07T17:05:51.182Z,12.60
2018-02-07T17:08:18.740Z,17.10
2018-02-07T17:10:46.290Z,12.77
2018-02-07T17:13:13.924Z,8.97
2018-02-07T17:15:41.463Z,9.70
2018-02-07T17:18:09.058Z,10.43
2018-02-07T17:20:37.034Z,9.87
2018-02-07T17:23:04.577Z,10.67
2018-02-07T17:25:32.136Z,10.07
2018-02-07T17:28:00.552Z,14.80
2018-02-07T17:30:28.102Z,13.60
2018-02-07T17:32:55.646Z,11.60
2018-02-07T17:35:23.262Z,14.20
2018-02-07T17:37:50.828Z,12.87
2018-02-07T17:40:18.345Z,14.30
2018-02-07T17:42:45.941Z,15.23
2018-02-07T17:45:13.499Z,13.70
2018-02-07T17:47:41.088Z,14.30
2018-02-07T17:50:08.654Z,14.00
2018-02-07T17:52:36.280Z,14.13
2018-02-07T17:55:03.811Z,11.50
2018-02-07T17:57:31.360Z,12.13
2018-02-07T17:59:58.965Z,11.37
2018-02-07T18:02:26.487Z,13.47
2018-02-07T18:04:54.049Z,11.37
2018-02-07T18:07:21.635Z,12.80
2018-02-07T18:09:49.218Z,13.70
2018-02-07T18:12:16.756Z,11.90
2018-02-07T18:14:44.279Z,27.50
2018-02-07T18:17:11.924Z,20.87
2018-02-07T18:19:39.482Z,20.57
2018-02-07T18:22:07.068Z,21.40
2018-02-07T18:24:34.717Z,17.10
2018-02-07T18:27:02.239Z,18.70
2018-02-07T18:29:29.824Z,17.60
2018-02-07T18:31:57.427Z,14.67
2018-02-07T18:34:24.956Z,15.63
2018-02-07T18:36:52.810Z,16.67
2018-02-07T18:39:20.734Z,14.90
2018-02-07T18:41:48.505Z,15.00
2018-02-07T18:44:16.158Z,13.03
2018-02-07T18:46:43.750Z,12.10
2018-02-07T18:49:11.331Z,16.70
2018-02-07T18:51:38.930Z,16.93
2018-02-07T18:54:06.535Z,14.50
2018-02-07T18:56:34.100Z,11.90
2018-02-07T18:59:01.702Z,11.73
2018-02-07T19:01:29.231Z,13.87
2018-02-07T19:03:57.273Z,16.73
2018-02-07T19:06:24.835Z,13.07
2018-02-07T19:08:52.395Z,10.90
2018-02-07T19:11:20.017Z,11.77
2018-02-07T19:13:47.582Z,12.40
2018-02-07T19:16:15.162Z,11.27
2018-02-07T19:18:43.291Z,11.27
2018-02-07T19:21:10.839Z,11.70
2018-02-07T19:23:38.382Z,11.73
2018-02-07T19:26:05.955Z,12.17
2018-02-07T19:28:33.507Z,12.10
2018-02-07T19:31:01.102Z,12.30
2018-02-07T19:33:28.639Z,13.20
2018-02-07T19:35:56.292Z,11.40
2018-02-07T19:38:24.338Z,11.77
2018-02-07T19:40:52.995Z,12.93
2018-02-07T19:43:20.527Z,12.20
2018-02-07T19:45:48.961Z,13.23
2018-02-07T19:48:16.530Z,14.17
2018-02-07T19:50:44.048Z,13.97
2018-02-07T19:53:11.653Z,16.07
2018-02-07T19:55:40.245Z,14.70
2018-02-07T19:58:08.067Z,13.27
2018-02-07T20:00:35.726Z,12.93
2018-02-07T20:03:03.309Z,13.10
2018-02-07T20:05:31.331Z,13.80
2018-02-07T20:07:58.951Z,15.27
2018-02-07T20:10:26.942Z,15.13
2018-02-07T20:12:54.546Z,16.13
2018-02-07T20:15:22.312Z,15.80
2018-02-07T20:17:51.233Z,14.63
2018-02-07T20:20:18.775Z,13.60
2018-02-07T20:22:46.444Z,16.67
2018-02-07T20:25:14.533Z,15.73
2018-02-07T20:27:42.126Z,15.33
2018-02-07T20:30:09.824Z,15.27
2018-02-07T20:32:37.457Z,14.00
2018-02-07T20:35:05.003Z,12.87
2018-02-07T20:37:33.018Z,15.20
2018-02-07T20:40:00.552Z,14.20
2018-02-07T20:42:28.078Z,12.60
2018-02-07T20:44:55.714Z,13.10
2018-02-07T20:47:23.291Z,12.97
2018-02-07T20:49:50.902Z,12.03
2018-02-07T20:52:18.479Z,25.90
2018-02-07T20:54:46.012Z,25.83
2018-02-07T20:57:13.586Z,19.30
2018-02-07T20:59:41.148Z,18.27
2018-02-07T21:02:08.711Z,19.13
2018-02-07T21:04:36.274Z,19.30
2018-02-07T21:07:03.850Z,17.53
2018-02-07T21:09:31.446Z,18.47
2018-02-07T21:11:59.075Z,13.40
2018-02-07T21:14:26.599Z,15.97
2018-02-07T21:16:54.163Z,14.27
2018-02-07T21:19:21.774Z,14.73
2018-02-07T21:21:49.344Z,13.37
2018-02-07T21:24:16.906Z,13.07
2018-02-07T21:26:44.476Z,15.00
2018-02-07T21:29:12.078Z,14.00
2018-02-07T21:31:39.612Z,14.77
2018-02-07T21:34:07.129Z,15.20
2018-02-07T21:36:34.678Z,14.97
2018-02-07T21:39:02.225Z,15.57
2018-02-07T21:41:29.818Z,14.83
2018-02-07T21:43:57.404Z,14.90
2018-02-07T21:46:24.961Z,17.20
2018-02-07T21:48:52.531Z,16.40
2018-02-07T21:51:20.074Z,17.03
2018-02-07T21:53:47.728Z,15.17
2018-02-07T21:56:15.251Z,16.63
2018-02-07T21:58:42.790Z,15.20
2018-02-07T22:01:10.392Z,15.87
2018-02-07T22:03:37.948Z,14.50
2018-02-07T22:06:05.486Z,15.50
2018-02-07T22:08:33.112Z,15.40
2018-02-07T22:11:00.675Z,17.83
2018-02-07T22:13:28.295Z,16.83
2018-02-07T22:15:55.844Z,15.93
2018-02-07T22:18:23.427Z,17.70
2018-02-07T22:20:50.995Z,17.03
2018-02-07T22:23:18.642Z,18.50
2018-02-07T22:25:46.704Z,20.50
2018-02-07T22:28:14.247Z,18.90
2018-02-07T22:30:41.786Z,19.60
2018-02-07T22:33:09.382Z,19.43
2018-02-07T22:35:36.907Z,21.33
2018-02-07T22:38:04.423Z,22.03
2018-02-07T22:40:31.988Z,22.80
2018-02-07T22:42:59.555Z,23.93
2018-02-07T22:45:27.074Z,21.77
2018-02-07T22:47:54.634Z,20.50
2018-02-07T22:50:22.151Z,21.47
2018-02-07T22:52:49.699Z,20.27
2018-02-07T22:55:17.283Z,21.63
2018-02-07T22:57:44.875Z,20.20
2018-02-07T23:00:12.461Z,20.07
2018-02-07T23:02:39.985Z,23.07
2018-02-07T23:05:07.536Z,19.13
2018-02-07T23:07:35.089Z,20.03
2018-02-07T23:10:02.632Z,19.40
2018-02-07T23:12:30.215Z,19.90
2018-02-07T23:14:58.226Z,20.50
2018-02-07T23:17:25.772Z,19.30
2018-02-07T23:19:53.409Z,22.57
2018-02-07T23:22:20.955Z,22.03
2018-02-07T23:24:48.480Z,23.07
2018-02-07T23:27:16.080Z,22.57
2018-02-07T23:29:43.630Z,22.90
2018-02-07T23:32:11.170Z,20.57
2018-02-07T23:34:38.725Z,20.20
2018-02-07T23:37:06.271Z,21.70
2018-02-07T23:39:33.867Z,17.50
2018-02-07T23:42:01.389Z,18.37
2018-02-07T23:44:28.915Z,19.13
2018-02-07T23:46:56.475Z,20.13
2018-02-07T23:49:24.043Z,20.63
2018-02-07T23:51:51.696Z,22.07
2018-02-07T23:54:19.212Z,21.37
2018-02-07T23:56:46.774Z,21.40
2018-02-07T23:59:14.338Z,19.90
